Time;durP1;ratioP1;P1;durP2;ratioP2;P2;SDS_P1;SDS_P2;PMS_P1;PMS_P2;Temp;Humidity;BMP_temperature;BMP_pressure;BME280_temperature;BME280_humidity;BME280_pressure;Samples;Min_cycle;Max_cycle;Signal;HPM_P1;HPM_P2
2023/07/27 00:01:51;;;;;;;7.60;3.67;;;;;;;21.54;60.28;100013.94;5035000;28;20116;-79
2023/07/27 00:04:18;;;;;;;5.03;1.37;;;;;;;21.52;60.13;100008.66;5036581;28;20056;-78
2023/07/27 00:06:43;;;;;;;4.70;1.20;;;;;;;21.52;60.22;100011.34;5036580;28;20025;-79
2023/07/27 00:09:09;;;;;;;3.53;0.97;;;;;;;21.49;60.33;100007.00;5037043;28;20036;-78
2023/07/27 00:11:34;;;;;;;3.57;1.00;;;;;;;21.47;60.18;100011.59;5047835;28;20366;-78
2023/07/27 00:13:59;;;;;;;3.87;0.90;;;;;;;21.44;60.29;100008.19;5043997;28;20427;-81
2023/07/27 00:16:25;;;;;;;3.00;0.80;;;;;;;21.40;60.43;100009.31;5034443;28;20025;-82
2023/07/27 00:18:50;;;;;;;3.77;0.90;;;;;;;21.35;60.54;100009.59;5034534;28;20029;-83
2023/07/27 00:21:16;;;;;;;3.50;0.90;;;;;;;21.28;60.74;100003.69;5036240;28;20036;-83
2023/07/27 00:23:41;;;;;;;3.53;0.80;;;;;;;21.20;61.14;100006.75;5035098;28;20268;-83
2023/07/27 00:26:06;;;;;;;3.73;0.80;;;;;;;21.11;61.11;99996.53;5035871;28;20398;-83
2023/07/27 00:28:32;;;;;;;2.57;0.77;;;;;;;21.08;61.13;99986.84;5034698;28;20171;-83
2023/07/27 00:30:57;;;;;;;3.20;0.70;;;;;;;21.06;61.43;99994.09;5035514;28;20056;-83
2023/07/27 00:33:22;;;;;;;3.73;0.83;;;;;;;21.05;61.42;99986.13;5035680;28;20477;-84
2023/07/27 00:35:58;;;;;;;4.93;1.00;;;;;;;21.02;61.94;99989.84;5035712;28;20745;-83
2023/07/27 00:38:23;;;;;;;4.25;0.90;;;;;;;21.01;61.80;99984.56;5035760;28;20029;-83
2023/07/27 00:40:49;;;;;;;5.83;0.97;;;;;;;20.98;62.04;99982.94;5035762;28;20026;-83
2023/07/27 00:43:15;;;;;;;6.57;0.88;;;;;;;20.97;61.92;99977.66;5035508;28;20025;-83
2023/07/27 00:45:40;;;;;;;5.60;0.97;;;;;;;20.96;61.85;99975.91;5035675;28;20025;-83
2023/07/27 00:48:08;;;;;;;3.70;0.90;;;;;;;20.92;62.02;99970.72;5035700;28;20100;-83
2023/07/27 00:50:35;;;;;;;5.60;1.20;;;;;;;20.93;61.68;99974.25;5036920;28;20025;-83
2023/07/27 00:53:04;;;;;;;4.93;1.08;;;;;;;20.89;61.62;99976.25;5037947;28;20447;-84
2023/07/27 00:55:30;;;;;;;3.45;0.93;;;;;;;20.83;62.03;99976.53;5038032;28;20025;-83
2023/07/27 00:57:56;;;;;;;4.85;1.20;;;;;;;20.78;61.77;99971.41;5039230;28;20028;-84
2023/07/27 01:00:21;;;;;;;4.70;0.82;;;;;;;20.74;62.36;99974.31;5038982;28;20030;-83
2023/07/27 01:02:47;;;;;;;5.33;1.50;;;;;;;20.72;62.29;99971.72;5039241;28;20021;-83
2023/07/27 01:05:12;;;;;;;8.53;1.23;;;;;;;20.70;61.87;99970.91;5039026;28;20048;-83
2023/07/27 01:07:38;;;;;;;3.40;1.07;;;;;;;20.67;61.83;99971.09;5037438;28;20018;-83
2023/07/27 01:10:04;;;;;;;5.03;1.15;;;;;;;20.61;62.54;99966.91;5041460;28;20081;-83
2023/07/27 01:12:39;;;;;;;3.93;1.17;;;;;;;20.55;62.54;99969.91;5052690;28;20029;-83
2023/07/27 01:15:14;;;;;;;3.97;0.98;;;;;;;20.50;62.89;99962.13;5038746;28;20025;-83
2023/07/27 01:17:49;;;;;;;3.50;1.10;;;;;;;20.50;62.74;99958.56;5035093;28;20029;-83
2023/07/27 01:20:20;;;;;;;4.40;1.30;;;;;;;20.47;62.37;99959.56;5039130;28;20109;-83
2023/07/27 01:22:55;;;;;;;4.13;1.40;;;;;;;20.46;62.50;99955.16;5039203;28;20026;-83
2023/07/27 01:25:45;;;;;;;4.17;1.40;;;;;;;20.42;62.77;99944.72;5037807;28;20033;-83
2023/07/27 01:28:19;;;;;;;4.75;1.48;;;;;;;20.40;62.77;99947.47;5026100;28;20025;-83
2023/07/27 01:31:09;;;;;;;3.65;1.17;;;;;;;20.37;63.00;99953.81;5038661;28;20033;-83
2023/07/27 01:33:40;;;;;;;3.92;1.20;;;;;;;20.32;62.86;99950.53;5039029;28;20033;-83
2023/07/27 01:36:36;;;;;;;5.15;1.10;;;;;;;20.26;63.28;99945.47;5038894;28;20032;-83
2023/07/27 01:39:06;;;;;;;4.17;1.00;;;;;;;20.23;63.13;99940.28;5037952;28;20025;-83
2023/07/27 01:41:33;;;;;;;4.43;1.00;;;;;;;20.20;63.24;99938.63;5038895;28;20401;-83
2023/07/27 01:44:00;;;;;;;3.17;1.00;;;;;;;20.21;62.97;99942.19;5038633;28;20034;-83
2023/07/27 01:46:29;;;;;;;4.35;1.10;;;;;;;20.19;63.09;99938.72;5038580;28;20040;-83
2023/07/27 01:48:56;;;;;;;4.70;1.05;;;;;;;20.17;63.22;99935.25;5038952;28;20551;-83
2023/07/27 01:51:23;;;;;;;5.77;1.00;;;;;;;20.13;62.96;99933.66;5038800;28;20460;-83
2023/07/27 01:53:49;;;;;;;4.13;1.10;;;;;;;20.08;63.24;99929.41;5038523;28;20032;-83
2023/07/27 01:56:16;;;;;;;5.30;1.25;;;;;;;20.07;63.20;99932.16;5038434;28;20057;-83
2023/07/27 01:58:42;;;;;;;3.90;1.20;;;;;;;20.05;63.10;99932.22;5037326;28;20061;-83
2023/07/27 02:01:08;;;;;;;4.90;1.02;;;;;;;20.04;63.46;99935.84;5036931;28;20033;-83
2023/07/27 02:03:35;;;;;;;4.23;1.10;;;;;;;19.99;63.12;99927.19;5037920;28;20034;-83
2023/07/27 02:06:01;;;;;;;4.45;1.10;;;;;;;19.95;63.25;99925.63;5038400;28;20045;-83
2023/07/27 02:08:26;;;;;;;4.00;1.10;;;;;;;19.93;63.76;99919.47;5038222;28;20028;-83
2023/07/27 02:10:57;;;;;;;3.92;1.10;;;;;;;19.88;63.58;99922.34;5048449;28;20021;-83
2023/07/27 02:13:43;;;;;;;4.32;1.00;;;;;;;19.82;63.99;99917.31;5047362;28;20029;-83
2023/07/27 02:16:34;;;;;;;3.83;0.80;;;;;;;19.78;63.90;99919.25;5037931;28;20024;-83
2023/07/27 02:19:01;;;;;;;3.45;1.00;;;;;;;19.78;63.82;99916.56;5033233;28;20482;-82
2023/07/27 02:21:28;;;;;;;4.10;0.90;;;;;;;19.77;63.64;99922.84;5038170;28;20122;-83
2023/07/27 02:23:55;;;;;;;3.28;1.00;;;;;;;19.78;63.62;99916.56;5038116;28;20785;-83
2023/07/27 02:26:21;;;;;;;4.72;1.13;;;;;;;19.72;63.42;99914.19;5037565;28;20109;-82
2023/07/27 02:28:46;;;;;;;3.90;1.10;;;;;;;19.67;63.87;99918.03;5037945;28;20028;-82
2023/07/27 02:31:11;;;;;;;3.85;1.00;;;;;;;19.63;64.03;99910.16;5037769;28;20056;-82
2023/07/27 02:33:37;;;;;;;4.50;0.90;;;;;;;19.60;64.14;99915.66;5036792;28;20041;-83
2023/07/27 02:36:02;;;;;;;3.97;0.90;;;;;;;19.60;64.21;99912.09;5037682;28;20112;-82
2023/07/27 02:38:28;;;;;;;5.07;1.00;;;;;;;19.58;63.98;99912.19;5037867;28;20024;-83
2023/07/27 02:40:53;;;;;;;6.03;0.80;;;;;;;19.56;64.44;99907.84;5037703;28;20021;-83
2023/07/27 02:43:19;;;;;;;3.90;1.00;;;;;;;19.54;64.12;99913.28;5037590;28;20883;-82
2023/07/27 02:45:44;;;;;;;6.83;0.90;;;;;;;19.56;63.87;99913.19;5036187;28;20100;-82
2023/07/27 02:48:09;;;;;;;4.07;1.00;;;;;;;19.55;64.05;99906.13;5037648;28;20064;-82
2023/07/27 02:50:35;;;;;;;4.57;0.90;;;;;;;19.51;64.33;99911.59;5037692;28;20075;-83
2023/07/27 02:53:00;;;;;;;3.97;0.80;;;;;;;19.49;64.45;99902.81;5037359;28;20026;-83
2023/07/27 02:55:25;;;;;;;4.80;0.87;;;;;;;19.48;63.93;99895.72;5037371;28;20494;-82
2023/07/27 02:57:51;;;;;;;4.40;0.90;;;;;;;19.45;63.97;99906.56;5037351;28;20032;-83
2023/07/27 03:00:16;;;;;;;4.27;0.87;;;;;;;19.41;63.87;99896.97;5036892;28;20050;-83
2023/07/27 03:02:41;;;;;;;6.40;1.10;;;;;;;19.39;64.27;99903.31;5037363;28;20037;-82
2023/07/27 03:05:07;;;;;;;5.03;1.07;;;;;;;19.38;63.97;99899.75;5037038;28;20208;-83
2023/07/27 03:07:33;;;;;;;3.83;1.00;;;;;;;19.35;64.31;99899.91;5036957;28;20704;-82
2023/07/27 03:09:58;;;;;;;4.40;1.00;;;;;;;19.26;64.79;99903.88;5039842;28;20017;-82
2023/07/27 03:12:23;;;;;;;6.97;0.90;;;;;;;19.19;64.79;99900.63;5051179;28;20082;-83
2023/07/27 03:14:49;;;;;;;5.17;1.10;;;;;;;19.17;65.11;99905.19;5038078;28;20029;-82
2023/07/27 03:17:14;;;;;;;4.57;1.03;;;;;;;19.18;64.77;99909.56;5034867;28;20798;-83
2023/07/27 03:19:40;;;;;;;4.17;1.17;;;;;;;19.16;65.00;99906.09;5035722;28;20056;-82
2023/07/27 03:22:05;;;;;;;3.80;0.90;;;;;;;19.16;64.63;99915.91;5035568;28;20033;-83
2023/07/27 03:24:32;;;;;;;6.25;1.23;;;;;;;19.16;65.06;99905.22;5036858;28;20076;-82
2023/07/27 03:26:57;;;;;;;4.45;0.95;;;;;;;19.15;64.78;99909.69;5037060;28;20037;-82
2023/07/27 03:29:22;;;;;;;4.57;1.03;;;;;;;19.10;65.06;99905.53;5036614;28;20014;-82
2023/07/27 03:31:48;;;;;;;3.27;1.00;;;;;;;19.05;65.55;99908.38;5036801;28;20033;-82
2023/07/27 03:34:13;;;;;;;4.00;1.17;;;;;;;19.00;65.58;99915.75;5036849;28;20481;-82
2023/07/27 03:36:39;;;;;;;5.23;1.40;;;;;;;18.97;65.91;99913.19;5036964;28;20347;-82
2023/07/27 03:39:04;;;;;;;3.70;1.40;;;;;;;18.93;65.93;99905.31;5036609;28;20025;-82
2023/07/27 03:41:29;;;;;;;3.50;1.00;;;;;;;18.90;66.11;99902.75;5036756;28;20025;-82
2023/07/27 03:43:55;;;;;;;3.40;1.20;;;;;;;18.91;66.14;99907.16;5036540;28;20028;-82
2023/07/27 03:46:20;;;;;;;4.33;1.27;;;;;;;18.90;66.49;99901.91;5036428;28;20025;-82
2023/07/27 03:48:48;;;;;;;7.03;1.40;;;;;;;18.85;66.29;99906.59;5036899;28;20741;-82
2023/07/27 03:51:13;;;;;;;6.57;1.25;;;;;;;18.80;66.47;99898.78;5036763;28;20028;-82
2023/07/27 03:53:39;;;;;;;5.37;1.67;;;;;;;18.74;66.92;99907.06;5036365;28;20033;-82
2023/07/27 03:56:05;;;;;;;3.67;1.40;;;;;;;18.72;66.84;99912.44;5036477;28;20180;-82
2023/07/27 03:58:31;;;;;;;3.83;1.00;;;;;;;18.72;66.64;99908.94;5033912;28;20081;-82
2023/07/27 04:00:57;;;;;;;3.80;1.30;;;;;;;18.72;66.98;99900.94;5036426;28;20086;-82
2023/07/27 04:03:23;;;;;;;4.85;1.10;;;;;;;18.74;66.77;99909.72;5036606;28;20029;-82
2023/07/27 04:05:50;;;;;;;4.47;1.40;;;;;;;18.74;66.67;99904.41;5036631;28;20042;-82
2023/07/27 04:08:16;;;;;;;4.70;1.05;;;;;;;18.73;66.45;99900.00;5036646;28;20025;-82
2023/07/27 04:10:41;;;;;;;4.20;1.40;;;;;;;18.73;66.63;99894.66;5045449;28;20711;-82
2023/07/27 04:13:07;;;;;;;3.13;0.77;;;;;;;18.71;66.29;99891.19;5046405;28;20033;-82
2023/07/27 04:15:34;;;;;;;3.88;1.38;;;;;;;18.70;66.53;99902.81;5036633;28;20088;-82
2023/07/27 04:17:59;;;;;;;4.63;0.95;;;;;;;18.64;66.74;99896.78;5032241;28;20031;-82
2023/07/27 04:20:25;;;;;;;4.80;1.07;;;;;;;18.59;66.76;99896.13;5036192;28;20034;-81
2023/07/27 04:22:50;;;;;;;5.03;1.10;;;;;;;18.59;66.74;99890.78;5036637;28;20045;-81
2023/07/27 04:25:15;;;;;;;3.27;1.00;;;;;;;18.59;66.48;99885.44;5037286;28;20033;-81
2023/07/27 04:27:41;;;;;;;5.72;1.35;;;;;;;18.59;66.44;99890.78;5040386;28;20051;-82
2023/07/27 04:30:06;;;;;;;3.20;1.00;;;;;;;18.61;66.40;99888.91;5038677;28;20393;-82
2023/07/27 04:32:32;;;;;;;6.80;1.10;;;;;;;18.62;66.40;99885.31;5040078;28;20486;-82
2023/07/27 04:34:57;;;;;;;4.35;1.02;;;;;;;18.61;66.33;99885.41;5040358;28;20021;-82
2023/07/27 04:37:23;;;;;;;4.20;1.03;;;;;;;18.59;66.29;99884.59;5038902;28;20075;-81
2023/07/27 04:39:48;;;;;;;5.50;1.07;;;;;;;18.56;66.28;99887.38;5040233;28;20030;-81
2023/07/27 04:42:14;;;;;;;4.43;1.10;;;;;;;18.53;66.32;99885.72;5039924;28;20025;-81
2023/07/27 04:44:39;;;;;;;4.55;1.17;;;;;;;18.51;66.17;99882.25;5039953;28;20025;-81
2023/07/27 04:47:04;;;;;;;4.23;1.10;;;;;;;18.49;66.58;99878.81;5039818;28;20075;-81
2023/07/27 04:49:30;;;;;;;3.80;1.03;;;;;;;18.49;66.32;99878.81;5040023;28;20045;-81
2023/07/27 04:51:55;;;;;;;4.33;1.03;;;;;;;18.47;66.09;99880.66;5039928;28;20115;-81
2023/07/27 04:54:21;;;;;;;4.40;1.13;;;;;;;18.42;66.33;99885.31;5039795;28;20029;-81
2023/07/27 04:56:46;;;;;;;3.42;1.10;;;;;;;18.39;66.29;99880.09;5039594;28;20024;-81
2023/07/27 04:59:11;;;;;;;5.13;0.90;;;;;;;18.36;66.45;99883.78;5038297;28;20033;-81
2023/07/27 05:01:37;;;;;;;3.53;0.80;;;;;;;18.34;66.60;99880.34;5039790;28;20022;-81
2023/07/27 05:04:02;;;;;;;5.50;1.40;;;;;;;18.36;66.58;99884.66;5039457;28;20199;-82
2023/07/27 05:06:27;;;;;;;3.90;1.10;;;;;;;18.35;66.77;99890.06;5039534;28;20390;-81
2023/07/27 05:08:53;;;;;;;4.73;1.20;;;;;;;18.34;66.59;99891.84;5038444;28;20284;-81
2023/07/27 05:11:18;;;;;;;8.50;1.60;;;;;;;18.36;66.51;99884.66;5051561;28;20107;-81
2023/07/27 05:13:44;;;;;;;3.47;1.10;;;;;;;18.39;66.50;99888.09;5047694;28;20025;-81
2023/07/27 05:16:09;;;;;;;3.43;1.10;;;;;;;18.55;66.25;99888.31;5038986;28;20033;-81
2023/07/27 05:18:34;;;;;;;4.00;1.40;;;;;;;18.86;65.26;99885.16;5034490;28;20029;-81
2023/07/27 05:21:00;;;;;;;6.47;1.43;;;;;;;19.22;64.58;99876.47;5038286;28;20032;-81
2023/07/27 05:23:26;;;;;;;6.03;1.30;;;;;;;19.52;63.53;99875.06;5039554;28;20075;-81
2023/07/27 05:25:52;;;;;;;5.35;1.38;;;;;;;19.78;63.03;99876.50;5039540;28;20080;-81
2023/07/27 05:28:17;;;;;;;4.37;1.33;;;;;;;20.00;62.22;99875.47;5038761;28;20053;-81
2023/07/27 05:30:43;;;;;;;5.67;1.23;;;;;;;20.21;62.11;99865.50;5039103;28;20036;-81
2023/07/27 05:33:08;;;;;;;5.47;1.43;;;;;;;20.32;62.07;99866.78;5039137;28;20775;-81
2023/07/27 05:35:34;;;;;;;5.53;1.43;;;;;;;20.15;62.64;99862.28;5039159;28;20036;-81
2023/07/27 05:37:59;;;;;;;4.90;1.67;;;;;;;20.22;62.15;99864.56;5039053;28;20563;-81
2023/07/27 05:40:25;;;;;;;3.78;1.33;;;;;;;20.33;62.03;99861.34;5038834;28;20021;-81
2023/07/27 05:42:50;;;;;;;4.10;1.37;;;;;;;20.34;62.21;99868.41;5039111;28;20025;-81
2023/07/27 05:45:15;;;;;;;4.83;1.67;;;;;;;20.42;62.08;99865.34;5038183;28;20025;-81
2023/07/27 05:47:41;;;;;;;6.03;1.70;;;;;;;20.42;62.34;99859.16;5029643;28;20367;-81
2023/07/27 05:50:07;;;;;;;4.25;1.60;;;;;;;20.33;62.92;99863.16;5033668;28;20025;-81
2023/07/27 05:52:32;;;;;;;5.00;2.00;;;;;;;20.18;63.41;99862.97;5038654;28;20125;-81
2023/07/27 05:54:58;;;;;;;6.13;2.03;;;;;;;20.12;63.77;99873.13;5038542;28;20474;-81
2023/07/27 05:57:24;;;;;;;5.47;1.70;;;;;;;20.11;64.21;99872.28;5038694;28;20434;-81
2023/07/27 05:59:49;;;;;;;4.78;1.85;;;;;;;20.15;64.46;99862.28;5038327;28;20497;-80
2023/07/27 06:02:15;;;;;;;8.43;1.60;;;;;;;20.17;64.50;99863.94;5038434;28;20105;-81
2023/07/27 06:04:40;;;;;;;6.18;1.60;;;;;;;20.31;64.06;99862.38;5038473;28;20080;-80
2023/07/27 06:07:06;;;;;;;5.97;1.80;;;;;;;20.45;63.41;99867.84;5037528;28;20049;-80
2023/07/27 06:09:31;;;;;;;5.57;1.93;;;;;;;20.65;63.26;99856.13;5038415;28;20398;-80
2023/07/27 06:11:57;;;;;;;4.45;1.70;;;;;;;20.65;63.58;99860.59;5049153;28;20470;-81
2023/07/27 06:14:23;;;;;;;7.00;1.90;;;;;;;20.67;63.45;99855.19;5027725;28;20057;-81
2023/07/27 06:16:48;;;;;;;5.72;2.10;;;;;;;20.73;63.32;99863.72;5037936;28;20040;-82
2023/07/27 06:19:14;;;;;;;5.73;1.70;;;;;;;20.85;63.08;99866.75;5033807;28;20065;-83
2023/07/27 06:21:39;;;;;;;5.83;1.90;;;;;;;20.98;62.76;99861.59;5035421;28;20032;-81
2023/07/27 06:24:05;;;;;;;5.63;1.83;;;;;;;21.13;62.40;99859.91;5032216;28;20547;-81
2023/07/27 06:26:30;;;;;;;8.53;2.10;;;;;;;21.25;62.51;99859.25;5035126;28;20266;-83
2023/07/27 06:28:57;;;;;;;4.80;1.60;;;;;;;21.30;62.47;99861.63;5036053;28;20017;-82
2023/07/27 06:31:22;;;;;;;7.00;1.80;;;;;;;21.43;62.33;99861.81;5034929;28;20505;-83
2023/07/27 06:33:48;;;;;;;6.53;2.07;;;;;;;21.53;62.03;99863.06;5036935;28;20990;-83
2023/07/27 06:36:14;;;;;;;5.40;1.90;;;;;;;21.65;61.98;99861.53;5038606;28;20029;-81
2023/07/27 06:38:39;;;;;;;5.55;1.85;;;;;;;21.80;61.69;99862.44;5040197;28;20025;-83
2023/07/27 06:41:05;;;;;;;4.88;1.60;;;;;;;21.94;61.35;99861.66;5039733;28;20033;-83
2023/07/27 06:43:31;;;;;;;5.73;2.30;;;;;;;22.13;60.92;99855.22;5032648;28;20030;-82
2023/07/27 06:45:56;;;;;;;4.95;1.83;;;;;;;22.21;60.92;99860.97;5037108;28;20087;-83
2023/07/27 06:48:22;;;;;;;4.83;1.67;;;;;;;22.35;60.67;99858.34;5041754;28;20374;-83
2023/07/27 06:50:47;;;;;;;6.43;1.80;;;;;;;22.51;60.64;99862.81;5039450;28;20025;-88
2023/07/27 06:53:12;;;;;;;5.07;1.70;;;;;;;22.57;60.82;99866.94;5037752;28;20037;-85
2023/07/27 06:55:40;;;;;;;6.68;2.00;;;;;;;22.67;60.66;99859.19;5036863;28;20028;-85
2023/07/27 06:58:05;;;;;;;6.90;1.70;;;;;;;22.78;60.38;99862.06;5035575;28;20056;-85
2023/07/27 07:00:33;;;;;;;7.00;2.03;;;;;;;22.79;60.31;99861.16;5037038;28;20060;-86
2023/07/27 07:02:59;;;;;;;4.27;1.70;;;;;;;22.90;60.17;99864.00;5037303;28;20268;-86
2023/07/27 07:05:25;;;;;;;6.35;1.98;;;;;;;23.10;59.78;99859.22;5037457;28;20490;-85
2023/07/27 07:07:51;;;;;;;10.90;2.50;;;;;;;23.16;59.86;99868.72;5036010;28;20037;-86
2023/07/27 07:10:18;;;;;;;9.25;2.50;;;;;;;23.36;59.48;99867.47;5042298;28;20110;-85
2023/07/27 07:12:43;;;;;;;8.95;2.05;;;;;;;23.59;59.04;99854.38;5050354;28;20202;-86
2023/07/27 07:15:10;;;;;;;6.67;1.90;;;;;;;23.78;58.90;99852.19;5037111;28;20084;-86
2023/07/27 07:17:35;;;;;;;6.25;1.85;;;;;;;23.97;58.21;99847.41;5033042;28;20029;-86
2023/07/27 07:20:04;;;;;;;5.97;1.80;;;;;;;24.12;58.27;99834.78;5036961;28;20037;-86
2023/07/27 07:22:30;;;;;;;6.45;1.83;;;;;;;24.30;57.62;99836.22;5037394;28;20030;-87
2023/07/27 07:24:55;;;;;;;6.17;1.40;;;;;;;24.45;57.37;99837.00;5037175;28;20040;-86
2023/07/27 07:27:20;;;;;;;7.53;1.50;;;;;;;24.57;57.11;99837.97;5037120;28;20033;-86
2023/07/27 07:29:46;;;;;;;5.50;1.50;;;;;;;24.68;57.12;99826.47;5035593;28;20022;-86
2023/07/27 07:32:12;;;;;;;7.28;1.58;;;;;;;24.74;57.32;99827.84;5036854;28;20036;-86
2023/07/27 07:34:37;;;;;;;6.17;1.30;;;;;;;24.77;56.82;99822.28;5037289;28;20550;-86
2023/07/27 07:37:02;;;;;;;5.93;1.50;;;;;;;24.86;56.86;99829.69;5037091;28;20060;-86
2023/07/27 07:39:28;;;;;;;7.10;1.50;;;;;;;24.97;56.61;99817.31;5036892;28;20029;-86
2023/07/27 07:41:53;;;;;;;5.83;1.50;;;;;;;25.16;56.77;99817.69;5036984;28;20405;-87
2023/07/27 07:44:19;;;;;;;5.63;1.30;;;;;;;25.38;55.99;99810.72;5036732;28;20378;-87
2023/07/27 07:46:44;;;;;;;6.27;1.63;;;;;;;25.61;55.53;99805.50;5036761;28;20492;-87
2023/07/27 07:49:09;;;;;;;5.85;1.48;;;;;;;25.85;55.28;99812.72;5036931;28;20025;-87
2023/07/27 07:51:35;;;;;;;6.23;1.37;;;;;;;25.99;54.58;99809.84;5036687;28;20116;-87
2023/07/27 07:54:00;;;;;;;4.87;1.47;;;;;;;26.08;54.02;99808.28;5035609;28;20049;-87
2023/07/27 07:56:26;;;;;;;5.27;1.57;;;;;;;26.08;54.70;99814.53;5036636;28;20028;-87
2023/07/27 07:58:51;;;;;;;6.78;1.25;;;;;;;26.17;54.56;99806.75;5036501;28;20030;-85
2023/07/27 08:01:17;;;;;;;7.50;1.77;;;;;;;26.40;54.20;99802.25;5037888;28;20029;-85
2023/07/27 08:03:42;;;;;;;4.50;1.20;;;;;;;26.57;54.06;99800.91;5040447;28;20017;-85
2023/07/27 08:06:11;;;;;;;6.13;1.20;;;;;;;26.69;53.88;99792.84;5040412;28;20068;-84
2023/07/27 08:08:36;;;;;;;4.40;1.40;;;;;;;26.87;53.39;99787.81;5040541;28;20401;-85
2023/07/27 08:11:02;;;;;;;4.83;1.10;;;;;;;26.99;52.92;99785.97;5054149;28;20040;-85
2023/07/27 08:13:29;;;;;;;3.40;1.10;;;;;;;27.14;52.55;99787.44;5050103;28;20033;-85
2023/07/27 08:15:54;;;;;;;4.40;1.20;;;;;;;27.23;52.42;99788.50;5042541;28;20391;-85
2023/07/27 08:18:20;;;;;;;5.07;1.13;;;;;;;27.33;52.40;99781.38;5040986;28;20025;-86
2023/07/27 08:20:59;;;;;;;3.60;1.20;;;;;;;27.39;51.93;99785.44;5043027;28;20029;-85
2023/07/27 08:23:25;;;;;;;3.30;1.05;;;;;;;27.44;51.34;99785.00;5043178;28;20040;-88
2023/07/27 08:25:53;;;;;;;5.38;1.10;;;;;;;27.49;51.46;99778.25;5042306;28;20034;-87
2023/07/27 08:28:19;;;;;;;3.87;1.20;;;;;;;27.55;51.21;99776.03;5040180;28;20021;-88
2023/07/27 08:30:44;;;;;;;3.60;1.20;;;;;;;27.61;50.90;99764.72;5040289;28;20052;-88
2023/07/27 08:33:12;;;;;;;4.17;1.20;;;;;;;27.67;50.87;99769.63;5040411;28;20064;-88
2023/07/27 08:35:38;;;;;;;4.45;1.10;;;;;;;27.77;50.32;99765.13;5040325;28;20022;-88
2023/07/27 08:38:03;;;;;;;3.00;1.00;;;;;;;27.79;50.44;99756.91;5040543;28;20084;-88
2023/07/27 08:40:29;;;;;;;5.65;1.10;;;;;;;27.86;50.10;99747.25;5040208;28;20028;-89
2023/07/27 08:42:55;;;;;;;3.30;1.10;;;;;;;27.93;50.29;99747.59;5039951;28;20056;-88
2023/07/27 08:45:22;;;;;;;5.63;1.15;;;;;;;28.07;50.13;99743.72;5040023;28;20485;-88
2023/07/27 08:47:48;;;;;;;3.50;1.05;;;;;;;28.11;49.46;99733.47;5040373;28;20032;-88
2023/07/27 08:50:15;;;;;;;2.90;1.03;;;;;;;28.14;49.09;99733.22;5039887;28;20025;-87
2023/07/27 08:52:41;;;;;;;5.53;1.00;;;;;;;27.95;49.34;99740.22;5039915;28;20025;-87
2023/07/27 08:55:07;;;;;;;4.72;1.30;;;;;;;27.91;49.33;99731.50;5039629;28;20036;-88
2023/07/27 08:57:32;;;;;;;5.35;1.23;;;;;;;27.92;49.25;99735.06;5039898;28;20421;-88
2023/07/27 08:59:58;;;;;;;3.57;1.00;;;;;;;27.83;49.50;99731.31;5036790;28;20052;-88
2023/07/27 09:02:23;;;;;;;6.70;1.10;;;;;;;27.97;49.05;99727.41;5033557;28;20100;-88
2023/07/27 09:04:48;;;;;;;3.60;1.10;;;;;;;28.04;48.51;99730.44;5039710;28;20523;-88
2023/07/27 09:07:14;;;;;;;4.30;1.40;;;;;;;28.03;48.49;99729.56;5039651;28;20482;-87
2023/07/27 09:09:40;;;;;;;4.27;1.30;;;;;;;28.10;48.61;99723.66;5039931;28;20252;-89
2023/07/27 09:12:07;;;;;;;3.83;1.52;;;;;;;28.21;48.87;99729.00;5053905;28;20019;-89
2023/07/27 09:14:36;;;;;;;6.00;1.70;;;;;;;28.07;48.65;99722.91;5043859;28;20033;-88
2023/07/27 09:17:02;;;;;;;4.22;1.30;;;;;;;28.28;48.64;99723.91;5039073;28;20057;-89
2023/07/27 09:19:35;;;;;;;3.83;1.42;;;;;;;28.34;48.36;99726.09;5035574;28;20037;-89
2023/07/27 09:22:02;;;;;;;5.72;1.55;;;;;;;28.43;48.07;99717.13;5039458;28;20486;-90
2023/07/27 09:24:31;;;;;;;4.05;1.17;;;;;;;28.64;47.69;99718.94;5039626;28;20049;-89
2023/07/27 09:26:57;;;;;;;5.27;1.33;;;;;;;28.85;47.50;99715.34;5039650;28;20463;-89
2023/07/27 09:29:22;;;;;;;3.28;1.10;;;;;;;29.01;46.79;99709.38;5037731;28;20029;-89
2023/07/27 09:31:49;;;;;;;3.07;1.17;;;;;;;29.04;46.64;99715.38;5039256;28;20061;-89
2023/07/27 09:34:16;;;;;;;5.10;1.40;;;;;;;29.22;46.57;99712.84;5039145;28;20111;-88
2023/07/27 09:36:41;;;;;;;4.95;1.40;;;;;;;29.32;45.99;99715.56;5039320;28;20481;-89
2023/07/27 09:39:07;;;;;;;4.07;1.50;;;;;;;29.29;45.99;99717.69;5039079;28;20091;-90
2023/07/27 09:41:33;;;;;;;4.22;1.92;;;;;;;29.46;45.70;99713.47;5039324;28;20013;-89
2023/07/27 09:43:59;;;;;;;3.30;1.33;;;;;;;29.49;45.66;99718.59;5038709;28;20451;-89
2023/07/27 09:46:25;;;;;;;5.78;1.75;;;;;;;29.49;45.67;99708.59;5037979;28;20056;-90
2023/07/27 09:48:51;;;;;;;4.23;1.43;;;;;;;29.47;45.84;99707.03;5039095;28;20120;-90
2023/07/27 09:51:17;;;;;;;4.50;1.80;;;;;;;29.66;45.70;99706.16;5039001;28;20256;-90
2023/07/27 09:53:45;;;;;;;5.05;1.60;;;;;;;29.76;45.52;99704.28;5037529;28;20021;-91
2023/07/27 09:56:14;;;;;;;3.83;1.50;;;;;;;29.82;45.13;99708.28;5039091;28;20100;-89
2023/07/27 09:58:41;;;;;;;3.92;1.50;;;;;;;29.99;45.12;99698.53;5038463;28;20030;-88
2023/07/27 10:01:07;;;;;;;4.05;1.42;;;;;;;30.11;44.87;99695.69;5038736;28;20036;-89
2023/07/27 10:03:33;;;;;;;4.50;1.30;;;;;;;30.18;44.59;99688.66;5037231;28;20093;-91
2023/07/27 10:05:59;;;;;;;5.03;1.40;;;;;;;30.28;44.49;99680.47;5038497;28;20548;-90
2023/07/27 10:08:25;;;;;;;4.68;1.42;;;;;;;30.35;44.12;99681.59;5038830;28;20049;-90
2023/07/27 10:10:55;;;;;;;4.27;1.13;;;;;;;30.38;44.04;99672.28;5048582;28;20067;-91
2023/07/27 10:13:23;;;;;;;4.00;1.50;;;;;;;30.44;43.38;99663.53;5045728;28;20021;-90
2023/07/27 10:15:50;;;;;;;3.40;1.35;;;;;;;30.51;43.43;99661.97;5038627;28;20389;-89
2023/07/27 10:18:20;;;;;;;4.65;1.67;;;;;;;30.62;43.94;99660.91;5034741;28;20513;-90
2023/07/27 10:20:45;;;;;;;3.85;1.23;;;;;;;30.69;43.58;99651.16;5038627;28;20053;-90
2023/07/27 10:23:18;;;;;;;7.43;1.33;;;;;;;30.80;43.62;99641.94;5037638;28;20036;-90
2023/07/27 10:25:53;;;;;;;4.70;1.20;;;;;;;30.82;42.59;99649.91;5033785;28;20469;-90
2023/07/27 10:28:31;;;;;;;3.90;1.40;;;;;;;30.79;42.72;99651.94;5037938;28;20068;-90
2023/07/27 10:31:26;;;;;;;4.88;1.33;;;;;;;30.82;42.81;99639.91;5038139;28;20032;-91
2023/07/27 10:34:24;;;;;;;4.15;1.30;;;;;;;31.00;42.42;99641.81;5022191;28;20026;-90
2023/07/27 10:36:59;;;;;;;4.13;1.25;;;;;;;31.02;42.75;99642.50;5013209;28;20072;-90
2023/07/27 10:39:34;;;;;;;4.85;1.27;;;;;;;31.16;42.44;99631.06;5026004;28;20037;-90
2023/07/27 10:42:03;;;;;;;4.87;1.57;;;;;;;31.24;41.61;99624.03;5039792;28;20033;-90
2023/07/27 10:44:48;;;;;;;4.10;1.20;;;;;;;31.10;41.15;99628.97;5040721;28;20549;-90
2023/07/27 10:47:23;;;;;;;4.43;1.40;;;;;;;31.13;41.09;99619.66;5041624;28;20460;-88
2023/07/27 10:49:54;;;;;;;3.72;1.40;;;;;;;31.20;41.15;99621.59;5039260;28;20021;-90
2023/07/27 10:52:24;;;;;;;4.50;1.30;;;;;;;31.34;41.42;99617.47;5036425;28;20064;-89
2023/07/27 10:54:51;;;;;;;4.80;1.50;;;;;;;31.46;40.02;99614.50;5038317;28;20025;-89
2023/07/27 10:57:17;;;;;;;4.88;1.67;;;;;;;31.46;39.75;99609.91;5038066;28;20021;-88
2023/07/27 10:59:45;;;;;;;4.60;1.35;;;;;;;31.45;41.01;99608.19;5037608;28;20034;-88
2023/07/27 11:02:18;;;;;;;5.15;1.30;;;;;;;31.46;39.84;99609.91;5036667;28;20029;-87
2023/07/27 11:04:44;;;;;;;4.07;1.30;;;;;;;31.63;40.22;99610.91;5038020;28;20505;-88
2023/07/27 11:07:10;;;;;;;4.20;1.50;;;;;;;31.73;39.74;99601.78;5040247;28;20068;-87
2023/07/27 11:09:37;;;;;;;4.28;1.20;;;;;;;31.84;39.85;99603.41;5039427;28;20024;-87
2023/07/27 11:12:04;;;;;;;5.53;1.55;;;;;;;31.90;39.93;99605.47;5053530;28;20064;-86
2023/07/27 11:14:30;;;;;;;4.80;1.60;;;;;;;32.03;39.04;99597.72;5041486;28;20029;-86
2023/07/27 11:16:56;;;;;;;4.33;1.40;;;;;;;32.09;39.39;99588.06;5037166;28;20037;-87
2023/07/27 11:19:24;;;;;;;4.17;1.40;;;;;;;32.10;38.59;99588.91;5033017;28;20284;-86
2023/07/27 11:21:50;;;;;;;3.88;1.30;;;;;;;32.18;38.90;99584.34;5037449;28;20030;-87
2023/07/27 11:24:17;;;;;;;3.50;1.40;;;;;;;32.25;38.63;99587.28;5036988;28;20034;-87
2023/07/27 11:26:43;;;;;;;4.60;1.50;;;;;;;32.15;38.43;99581.09;5037311;28;20040;-87
2023/07/27 11:29:09;;;;;;;4.40;1.43;;;;;;;32.24;37.75;99580.13;5036717;28;20108;-86
2023/07/27 11:31:35;;;;;;;3.97;1.55;;;;;;;32.30;37.58;99574.00;5036968;28;20021;-87
2023/07/27 11:34:02;;;;;;;4.55;1.27;;;;;;;32.46;38.19;99572.38;5036745;28;20064;-87